createdAt,value
2019-01-12T00:01:04.295Z,11.27
2019-01-12T00:03:30.828Z,12.03
2019-01-12T00:05:57.665Z,12.70
2019-01-12T00:08:24.511Z,14.00
2019-01-12T00:10:51.353Z,12.30
2019-01-12T00:13:18.202Z,11.47
2019-01-12T00:15:45.038Z,11.37
2019-01-12T00:18:11.567Z,10.20
2019-01-12T00:20:38.414Z,11.57
2019-01-12T00:23:05.251Z,13.87
2019-01-12T00:25:32.092Z,11.70
2019-01-12T00:27:58.626Z,9.80
2019-01-12T00:30:25.468Z,11.63
2019-01-12T00:32:52.313Z,9.37
2019-01-12T00:35:18.844Z,9.50
2019-01-12T00:37:45.686Z,11.90
2019-01-12T00:40:12.223Z,10.83
2019-01-12T00:42:39.369Z,10.37
2019-01-12T00:45:05.914Z,9.13
2019-01-12T00:47:32.795Z,8.97
2019-01-12T00:50:00.192Z,9.37
2019-01-12T00:52:27.047Z,10.00
2019-01-12T00:54:53.577Z,9.77
2019-01-12T00:57:20.113Z,9.10
2019-01-12T00:59:46.651Z,9.10
2019-01-12T01:02:13.488Z,8.60
2019-01-12T01:04:40.062Z,9.07
2019-01-12T01:07:06.864Z,7.57
2019-01-12T01:09:33.400Z,7.30
2019-01-12T01:11:59.941Z,9.13
2019-01-12T01:14:26.776Z,6.30
2019-01-12T01:16:53.618Z,8.80
2019-01-12T01:19:20.466Z,6.47
2019-01-12T01:21:46.994Z,8.17
2019-01-12T01:24:13.835Z,8.40
2019-01-12T01:26:40.690Z,7.10
2019-01-12T01:29:07.519Z,6.97
2019-01-12T01:31:34.056Z,6.20
2019-01-12T01:34:00.894Z,5.97
2019-01-12T01:36:27.736Z,7.00
2019-01-12T01:38:54.582Z,6.40
2019-01-12T01:41:21.113Z,6.33
2019-01-12T01:43:47.958Z,5.93
2019-01-12T01:46:14.806Z,6.53
2019-01-12T01:48:41.330Z,5.60
2019-01-12T01:51:08.172Z,6.33
2019-01-12T01:53:34.712Z,6.80
2019-01-12T01:56:01.241Z,6.23
2019-01-12T01:58:28.088Z,6.47
2019-01-12T02:00:54.926Z,5.90
2019-01-12T02:03:21.766Z,5.77
2019-01-12T02:05:48.300Z,4.67
2019-01-12T02:08:14.838Z,5.17
2019-01-12T02:10:41.368Z,6.53
2019-01-12T02:13:07.909Z,6.90
2019-01-12T02:15:34.438Z,5.67
2019-01-12T02:18:01.279Z,7.20
2019-01-12T02:20:27.815Z,5.63
2019-01-12T02:22:54.663Z,6.37
2019-01-12T02:25:21.198Z,4.60
2019-01-12T02:27:48.032Z,3.33
2019-01-12T02:30:14.571Z,4.13
2019-01-12T02:32:41.411Z,4.73
2019-01-12T02:35:08.251Z,6.23
2019-01-12T02:37:35.092Z,5.30
2019-01-12T02:40:01.639Z,4.50
2019-01-12T02:42:29.085Z,6.37
2019-01-12T02:44:55.929Z,5.50
2019-01-12T02:47:22.768Z,5.20
2019-01-12T02:49:49.617Z,6.13
2019-01-12T02:52:16.449Z,3.53
2019-01-12T02:54:42.984Z,5.10
2019-01-12T02:57:09.829Z,7.67
2019-01-12T02:59:36.671Z,5.80
2019-01-12T03:02:03.510Z,4.30
2019-01-12T03:04:30.359Z,7.83
2019-01-12T03:06:56.895Z,3.20
2019-01-12T03:09:23.418Z,4.10
2019-01-12T03:11:50.048Z,3.90
2019-01-12T03:14:16.796Z,4.10
2019-01-12T03:16:43.333Z,5.57
2019-01-12T03:19:10.175Z,8.13
2019-01-12T03:21:36.708Z,5.07
2019-01-12T03:24:03.549Z,7.57
2019-01-12T03:26:30.083Z,3.87
2019-01-12T03:28:56.624Z,5.07
2019-01-12T03:31:23.153Z,5.47
2019-01-12T03:33:49.685Z,2.47
2019-01-12T03:36:16.526Z,4.87
2019-01-12T03:38:43.070Z,2.90
2019-01-12T03:41:09.599Z,4.63
2019-01-12T03:43:36.446Z,3.13
2019-01-12T03:46:02.973Z,4.53
2019-01-12T03:48:29.536Z,5.03
2019-01-12T03:50:56.040Z,4.23
2019-01-12T03:53:22.883Z,2.83
2019-01-12T03:55:49.727Z,5.93
2019-01-12T03:58:16.568Z,4.93
2019-01-12T04:00:43.408Z,4.87
2019-01-12T04:03:09.955Z,4.30
2019-01-12T04:05:36.479Z,3.57
2019-01-12T04:08:03.319Z,3.87
2019-01-12T04:10:30.161Z,6.10
2019-01-12T04:12:56.699Z,3.37
2019-01-12T04:15:23.536Z,4.50
2019-01-12T04:17:50.074Z,3.50
2019-01-12T04:20:16.605Z,2.33
2019-01-12T04:22:43.450Z,3.13
2019-01-12T04:25:10.289Z,2.53
2019-01-12T04:27:36.826Z,5.23
2019-01-12T04:30:03.665Z,3.57
2019-01-12T04:32:30.199Z,4.50
2019-01-12T04:34:57.042Z,2.60
2019-01-12T04:37:23.883Z,3.10
2019-01-12T04:39:50.727Z,3.30
2019-01-12T04:42:17.259Z,3.10
2019-01-12T04:44:44.100Z,2.77
2019-01-12T04:47:10.941Z,2.53
2019-01-12T04:49:37.519Z,11.60
2019-01-12T04:52:04.317Z,17.33
2019-01-12T04:54:30.854Z,8.80
2019-01-12T04:56:57.422Z,4.77
2019-01-12T04:59:24.227Z,4.53
2019-01-12T05:01:51.070Z,4.93
2019-01-12T05:04:17.605Z,3.37
2019-01-12T05:06:44.451Z,4.20
2019-01-12T05:09:10.983Z,4.50
2019-01-12T05:11:37.828Z,3.30
2019-01-12T05:14:04.360Z,2.67
2019-01-12T05:16:30.892Z,2.33
2019-01-12T05:18:57.736Z,3.00
2019-01-12T05:21:24.268Z,2.40
2019-01-12T05:23:51.109Z,4.07
2019-01-12T05:26:18.016Z,3.10
2019-01-12T05:28:44.793Z,6.07
2019-01-12T05:31:11.634Z,6.23
2019-01-12T05:33:38.476Z,10.73
2019-01-12T05:36:05.017Z,4.70
2019-01-12T05:38:31.851Z,2.97
2019-01-12T05:40:58.389Z,3.00
2019-01-12T05:43:25.230Z,3.40
2019-01-12T05:45:52.072Z,2.57
2019-01-12T05:48:18.920Z,6.23
2019-01-12T05:50:45.753Z,3.17
2019-01-12T05:53:12.595Z,4.67
2019-01-12T05:55:39.131Z,3.17
2019-01-12T05:58:05.668Z,4.47
2019-01-12T06:00:32.204Z,3.43
2019-01-12T06:02:59.040Z,10.47
2019-01-12T06:05:25.581Z,4.33
2019-01-12T06:07:52.416Z,4.97
2019-01-12T06:10:18.955Z,7.37
2019-01-12T06:12:45.463Z,6.83
2019-01-12T06:15:12.327Z,5.13
2019-01-12T06:17:38.867Z,3.30
2019-01-12T06:20:05.398Z,5.13
2019-01-12T06:22:32.241Z,3.10
2019-01-12T06:24:58.776Z,5.50
2019-01-12T06:27:25.307Z,4.93
2019-01-12T06:29:51.846Z,9.80
2019-01-12T06:32:18.682Z,3.70
2019-01-12T06:34:45.218Z,5.10
2019-01-12T06:37:11.757Z,5.57
2019-01-12T06:39:38.293Z,9.13
2019-01-12T06:42:05.150Z,6.50
2019-01-12T06:44:31.969Z,17.93
2019-01-12T06:46:58.505Z,6.60
2019-01-12T06:49:25.039Z,9.67
2019-01-12T06:51:51.881Z,4.80
2019-01-12T06:54:18.415Z,8.17
2019-01-12T06:56:44.950Z,8.67
2019-01-12T06:59:11.484Z,3.13
2019-01-12T07:01:38.020Z,4.90
2019-01-12T07:04:04.552Z,3.77
2019-01-12T07:06:31.395Z,5.97
2019-01-12T07:08:58.219Z,3.77
2019-01-12T07:11:24.770Z,4.93
2019-01-12T07:13:51.614Z,4.23
2019-01-12T07:16:18.149Z,6.80
2019-01-12T07:18:44.989Z,5.30
2019-01-12T07:21:11.526Z,4.57
2019-01-12T07:23:38.365Z,6.03
2019-01-12T07:26:04.882Z,2.57
2019-01-12T07:28:31.433Z,4.63
2019-01-12T07:30:58.280Z,3.17
2019-01-12T07:33:25.117Z,3.73
2019-01-12T07:35:51.651Z,10.57
2019-01-12T07:38:18.278Z,5.80
2019-01-12T07:40:45.027Z,5.67
2019-01-12T07:43:11.565Z,2.87
2019-01-12T07:45:38.408Z,4.53
2019-01-12T07:48:04.938Z,7.07
2019-01-12T07:50:31.476Z,3.17
2019-01-12T07:52:58.085Z,4.17
2019-01-12T07:55:24.849Z,6.17
2019-01-12T07:57:51.383Z,6.10
2019-01-12T08:00:18.532Z,5.40
2019-01-12T08:02:45.070Z,5.87
2019-01-12T08:05:11.618Z,10.90
2019-01-12T08:07:38.222Z,8.70
2019-01-12T08:10:04.979Z,11.43
2019-01-12T08:12:31.520Z,21.23
2019-01-12T08:14:58.047Z,9.47
2019-01-12T08:17:24.891Z,6.80
2019-01-12T08:19:51.730Z,10.77
2019-01-12T08:22:18.268Z,4.40
2019-01-12T08:24:44.799Z,8.67
2019-01-12T08:27:11.335Z,16.03
2019-01-12T08:29:37.872Z,10.03
2019-01-12T08:32:04.712Z,15.03
2019-01-12T08:34:31.245Z,9.63
2019-01-12T08:36:57.786Z,12.93
2019-01-12T08:39:24.316Z,9.87
2019-01-12T08:41:51.156Z,12.50
2019-01-12T08:44:17.689Z,14.13
2019-01-12T08:46:44.533Z,12.97
2019-01-12T08:49:11.359Z,8.60
2019-01-12T08:51:38.014Z,9.13
2019-01-12T08:54:04.747Z,8.53
2019-01-12T08:56:37.988Z,13.93
2019-01-12T08:58:59.661Z,10.57
2019-01-12T09:01:26.507Z,7.93
2019-01-12T09:03:53.346Z,11.30
2019-01-12T09:06:19.884Z,12.57
2019-01-12T09:08:46.415Z,10.50
2019-01-12T09:11:13.254Z,9.93
2019-01-12T09:13:40.099Z,11.80
2019-01-12T09:16:06.825Z,14.20
2019-01-12T09:18:33.473Z,120.43
2019-01-12T09:21:00.012Z,202.07
2019-01-12T09:23:26.542Z,242.97
2019-01-12T09:25:53.382Z,220.83
2019-01-12T09:28:19.921Z,211.90
2019-01-12T09:30:48.565Z,225.17
2019-01-12T09:33:14.833Z,189.37
2019-01-12T09:35:41.364Z,190.83
2019-01-12T09:38:08.206Z,171.43
2019-01-12T09:40:34.740Z,177.70
2019-01-12T09:43:01.274Z,173.40
2019-01-12T09:45:28.115Z,149.70
2019-01-12T09:47:54.652Z,145.03
2019-01-12T09:50:21.492Z,148.07
2019-01-12T09:52:48.337Z,154.13
2019-01-12T09:55:15.177Z,136.77
2019-01-12T09:57:41.712Z,146.03
2019-01-12T10:00:08.244Z,133.20
2019-01-12T10:02:34.783Z,153.70
2019-01-12T10:05:01.316Z,151.30
2019-01-12T10:07:27.851Z,141.07
2019-01-12T10:09:54.382Z,136.93
2019-01-12T10:12:20.917Z,131.07
2019-01-12T10:14:47.761Z,147.80
2019-01-12T10:17:14.291Z,124.40
2019-01-12T10:19:41.134Z,136.77
2019-01-12T10:22:07.980Z,139.73
2019-01-12T10:24:34.511Z,129.93
2019-01-12T10:27:01.118Z,132.13
2019-01-12T10:29:28.194Z,127.27
2019-01-12T10:31:55.035Z,139.43
2019-01-12T10:34:21.571Z,130.40
2019-01-12T10:36:48.104Z,129.57
2019-01-12T10:39:17.974Z,128.20
2019-01-12T10:41:43.018Z,113.37
2019-01-12T10:44:09.572Z,108.83
2019-01-12T10:46:36.093Z,113.43
2019-01-12T10:49:02.931Z,116.27
2019-01-12T10:51:29.469Z,111.20
2019-01-12T10:53:56.000Z,105.00
2019-01-12T10:56:23.759Z,101.33
2019-01-12T10:58:50.600Z,106.70
2019-01-12T11:01:17.135Z,98.80
2019-01-12T11:03:43.977Z,84.13
2019-01-12T11:06:10.818Z,81.50
2019-01-12T11:08:37.354Z,79.70
2019-01-12T11:11:03.888Z,81.13
2019-01-12T11:13:30.729Z,89.07
2019-01-12T11:15:57.570Z,70.63
2019-01-12T11:18:24.634Z,74.40
2019-01-12T11:20:51.811Z,63.40
2019-01-12T11:23:18.589Z,60.40
2019-01-12T11:25:45.244Z,56.73
2019-01-12T11:28:11.780Z,61.87
2019-01-12T11:30:38.317Z,58.17
2019-01-12T11:33:04.847Z,51.83
2019-01-12T11:35:31.691Z,51.23
2019-01-12T11:37:58.226Z,46.50
2019-01-12T11:40:25.065Z,45.33
2019-01-12T11:42:51.603Z,47.20
2019-01-12T11:45:18.752Z,44.43
2019-01-12T11:47:45.285Z,45.77
2019-01-12T11:50:11.817Z,44.13
2019-01-12T11:52:38.353Z,47.00
2019-01-12T11:55:04.972Z,37.77
2019-01-12T11:57:31.732Z,37.17
2019-01-12T12:01:13.834Z,36.40
2019-01-12T12:03:40.676Z,31.40
2019-01-12T12:06:07.522Z,39.47
2019-01-12T12:08:34.099Z,41.20
2019-01-12T12:11:00.589Z,45.87
2019-01-12T12:13:27.127Z,33.03
2019-01-12T12:15:53.654Z,34.67
2019-01-12T12:18:20.190Z,40.47
2019-01-12T12:20:47.032Z,31.73
2019-01-12T12:23:13.566Z,38.10
2019-01-12T12:25:40.408Z,32.23
2019-01-12T12:28:06.949Z,37.33
2019-01-12T12:30:33.476Z,33.43
2019-01-12T12:33:00.320Z,30.93
2019-01-12T12:35:26.851Z,32.77
2019-01-12T12:37:53.388Z,35.77
2019-01-12T12:40:20.227Z,32.80
2019-01-12T12:42:46.765Z,30.37
2019-01-12T12:45:13.605Z,36.90
2019-01-12T12:47:40.139Z,27.57
2019-01-12T12:50:06.676Z,30.63
2019-01-12T12:52:33.210Z,32.80
2019-01-12T12:55:00.050Z,30.30
2019-01-12T12:57:32.743Z,30.97
2019-01-12T12:59:54.962Z,25.10
2019-01-12T13:02:21.499Z,28.07
2019-01-12T13:04:48.031Z,24.00
2019-01-12T13:07:14.567Z,28.47
2019-01-12T13:09:42.445Z,21.90
2019-01-12T13:12:09.177Z,23.50
2019-01-12T13:14:36.011Z,28.80
2019-01-12T13:17:02.547Z,24.23
2019-01-12T13:19:29.082Z,23.50
2019-01-12T13:21:55.923Z,23.33
2019-01-12T13:24:22.766Z,23.87
2019-01-12T13:26:49.608Z,25.27
2019-01-12T13:29:16.139Z,23.03
2019-01-12T13:31:42.982Z,22.10
2019-01-12T13:34:09.835Z,20.90
2019-01-12T13:36:36.358Z,24.83
2019-01-12T13:39:02.899Z,23.07
2019-01-12T13:41:29.430Z,22.20
2019-01-12T13:43:56.268Z,23.83
2019-01-12T13:46:23.110Z,20.13
2019-01-12T13:48:49.645Z,19.97
2019-01-12T13:51:16.179Z,21.77
2019-01-12T13:53:43.020Z,23.50
2019-01-12T13:56:09.557Z,22.47
2019-01-12T13:58:36.397Z,21.83
2019-01-12T14:01:03.238Z,21.47
2019-01-12T14:03:30.999Z,23.73
2019-01-12T14:05:58.152Z,23.70
2019-01-12T14:08:24.691Z,26.57
2019-01-12T14:10:51.528Z,19.93
2019-01-12T14:13:18.061Z,19.70
2019-01-12T14:15:44.596Z,18.37
2019-01-12T14:18:11.439Z,20.57
2019-01-12T14:20:37.974Z,19.40
2019-01-12T14:23:04.814Z,20.47
2019-01-12T14:25:31.347Z,19.77
2019-01-12T14:27:57.884Z,20.60
2019-01-12T14:30:24.434Z,18.03
2019-01-12T14:32:51.365Z,19.43
2019-01-12T14:35:18.100Z,17.53
2019-01-12T14:37:44.638Z,20.10
2019-01-12T14:40:11.170Z,20.30
2019-01-12T14:42:38.014Z,19.43
2019-01-12T14:45:04.548Z,17.57
2019-01-12T14:47:31.394Z,19.00
2019-01-12T14:49:58.230Z,22.93
2019-01-12T14:52:24.762Z,21.50
2019-01-12T14:54:51.609Z,20.87
2019-01-12T14:57:18.448Z,19.43
2019-01-12T14:59:45.050Z,20.17
2019-01-12T15:02:11.850Z,20.20
2019-01-12T15:04:38.692Z,19.03
2019-01-12T15:07:05.507Z,16.60
2019-01-12T15:09:32.047Z,19.07
2019-01-12T15:11:58.575Z,20.30
2019-01-12T15:14:25.111Z,18.87
2019-01-12T15:16:51.644Z,20.73
2019-01-12T15:19:18.180Z,19.03
2019-01-12T15:21:45.020Z,18.23
2019-01-12T15:24:11.556Z,20.67
2019-01-12T15:26:38.400Z,17.23
2019-01-12T15:29:04.933Z,17.97
2019-01-12T15:31:31.468Z,17.17
2019-01-12T15:33:58.305Z,19.20
2019-01-12T15:36:25.152Z,18.63
2019-01-12T15:38:51.682Z,15.80
2019-01-12T15:41:18.221Z,19.93
2019-01-12T15:43:44.751Z,17.70
2019-01-12T15:46:11.288Z,17.73
2019-01-12T15:48:37.827Z,17.70
2019-01-12T15:51:04.664Z,16.53
2019-01-12T15:53:31.196Z,18.00
2019-01-12T15:55:57.731Z,17.10
2019-01-12T15:58:24.268Z,21.43
2019-01-12T16:00:51.107Z,19.67
2019-01-12T16:03:17.952Z,17.40
2019-01-12T16:05:44.792Z,19.90
2019-01-12T16:08:11.326Z,14.87
2019-01-12T16:10:38.225Z,15.63
2019-01-12T16:13:05.010Z,19.57
2019-01-12T16:15:31.543Z,18.83
2019-01-12T16:17:58.390Z,17.03
2019-01-12T16:20:24.923Z,14.83
2019-01-12T16:22:51.761Z,17.10
2019-01-12T16:25:18.295Z,16.50
2019-01-12T16:27:44.832Z,15.47
2019-01-12T16:30:11.367Z,17.90
2019-01-12T16:32:38.205Z,15.43
2019-01-12T16:35:04.742Z,16.23
2019-01-12T16:37:32.049Z,14.63
2019-01-12T16:39:58.734Z,17.57
2019-01-12T16:42:25.267Z,16.27
2019-01-12T16:44:52.112Z,16.43
2019-01-12T16:47:18.641Z,16.03
2019-01-12T16:49:45.175Z,17.63
2019-01-12T16:52:12.019Z,15.40
2019-01-12T16:54:38.859Z,15.80
2019-01-12T16:57:05.703Z,13.70
2019-01-12T16:59:32.237Z,15.00
2019-01-12T17:01:58.771Z,15.47
2019-01-12T17:04:25.305Z,17.73
2019-01-12T17:06:51.842Z,15.93
2019-01-12T17:09:18.680Z,13.93
2019-01-12T17:11:45.219Z,13.90
2019-01-12T17:14:11.751Z,14.30
2019-01-12T17:16:38.592Z,15.87
2019-01-12T17:19:05.126Z,12.97
2019-01-12T17:21:31.660Z,13.17
2019-01-12T17:23:58.194Z,16.47
2019-01-12T17:26:25.044Z,13.17
2019-01-12T17:28:51.881Z,15.13
2019-01-12T17:31:18.412Z,14.23
2019-01-12T17:33:44.947Z,14.10
2019-01-12T17:36:11.483Z,14.50
2019-01-12T17:38:38.325Z,13.43
2019-01-12T17:41:04.883Z,14.57
2019-01-12T17:43:31.539Z,13.30
2019-01-12T17:45:58.242Z,13.80
2019-01-12T17:48:25.139Z,14.47
2019-01-12T17:50:51.922Z,15.07
2019-01-12T17:53:18.457Z,15.30
2019-01-12T17:55:44.986Z,13.00
2019-01-12T17:58:11.521Z,13.10
2019-01-12T18:00:38.055Z,11.90
2019-01-12T18:03:04.593Z,16.60
2019-01-12T18:05:31.125Z,14.43
2019-01-12T18:07:57.659Z,12.63
2019-01-12T18:10:24.194Z,12.03
2019-01-12T18:12:50.829Z,12.13
2019-01-12T18:15:17.570Z,12.10
2019-01-12T18:17:44.105Z,13.60
2019-01-12T18:20:10.641Z,16.60
2019-01-12T18:22:37.176Z,13.57
2019-01-12T18:25:03.691Z,12.77
2019-01-12T18:27:30.240Z,13.03
2019-01-12T18:29:56.777Z,14.50
2019-01-12T18:32:23.311Z,13.40
2019-01-12T18:34:49.854Z,12.40
2019-01-12T18:37:16.686Z,12.17
2019-01-12T18:39:43.528Z,12.67
2019-01-12T18:42:10.072Z,12.60
2019-01-12T18:44:37.211Z,13.07
2019-01-12T18:47:04.046Z,14.67
2019-01-12T18:49:30.596Z,13.57
2019-01-12T18:51:57.739Z,14.60
2019-01-12T18:54:24.562Z,11.47
2019-01-12T18:56:51.816Z,13.60
2019-01-12T18:59:18.578Z,12.17
2019-01-12T19:01:45.102Z,12.57
2019-01-12T19:04:11.945Z,13.87
2019-01-12T19:06:38.486Z,14.10
2019-01-12T19:09:05.327Z,14.80
2019-01-12T19:11:32.164Z,14.03
2019-01-12T19:13:58.696Z,15.50
2019-01-12T19:16:25.540Z,13.57
2019-01-12T19:18:52.674Z,14.10
2019-01-12T19:21:19.223Z,13.57
2019-01-12T19:23:46.080Z,12.93
2019-01-12T19:26:12.603Z,14.97
2019-01-12T19:28:39.137Z,13.00
2019-01-12T19:31:05.974Z,15.60
2019-01-12T19:33:32.817Z,13.10
2019-01-12T19:35:59.350Z,14.47
2019-01-12T19:38:25.884Z,11.50
2019-01-12T19:40:52.418Z,15.70
2019-01-12T19:43:19.055Z,12.03
2019-01-12T19:45:45.795Z,15.83
2019-01-12T19:48:12.636Z,14.63
2019-01-12T19:50:39.176Z,14.23
2019-01-12T19:53:06.012Z,16.03
2019-01-12T19:55:32.856Z,12.73
2019-01-12T19:57:59.389Z,14.07
2019-01-12T20:00:25.925Z,15.70
2019-01-12T20:02:52.460Z,12.60
2019-01-12T20:05:18.992Z,15.50
2019-01-12T20:07:45.528Z,14.63
2019-01-12T20:10:12.061Z,12.43
2019-01-12T20:12:38.596Z,16.47
2019-01-12T20:15:05.137Z,12.20
2019-01-12T20:17:31.972Z,16.33
2019-01-12T20:19:58.507Z,15.70
2019-01-12T20:22:25.348Z,14.40
2019-01-12T20:24:52.190Z,16.53
2019-01-12T20:27:18.724Z,12.63
2019-01-12T20:29:45.568Z,13.53
2019-01-12T20:32:12.102Z,12.80
2019-01-12T20:34:38.637Z,14.23
2019-01-12T20:37:05.173Z,14.20
2019-01-12T20:39:31.715Z,16.10
2019-01-12T20:42:01.329Z,16.77
2019-01-12T20:44:29.174Z,14.13
2019-01-12T20:46:55.915Z,14.43
2019-01-12T20:49:22.843Z,13.40
2019-01-12T20:51:50.059Z,15.43
2019-01-12T20:54:17.054Z,14.83
2019-01-12T20:56:43.887Z,16.03
2019-01-12T20:59:10.437Z,13.63
2019-01-12T21:01:37.042Z,12.67
2019-01-12T21:04:03.821Z,14.00
2019-01-12T21:06:30.649Z,12.40
2019-01-12T21:08:57.183Z,11.20
2019-01-12T21:11:24.024Z,12.30
2019-01-12T21:13:50.559Z,11.53
2019-01-12T21:16:17.092Z,15.00
2019-01-12T21:18:43.631Z,13.37
2019-01-12T21:21:10.162Z,13.10
2019-01-12T21:23:36.698Z,13.43
2019-01-12T21:26:03.236Z,13.07
2019-01-12T21:28:30.072Z,10.63
2019-01-12T21:30:56.607Z,11.67
2019-01-12T21:33:23.141Z,12.53
2019-01-12T21:35:49.675Z,11.30
2019-01-12T21:38:16.212Z,11.27
2019-01-12T21:40:43.051Z,11.20
2019-01-12T21:43:09.587Z,13.23
2019-01-12T21:45:36.123Z,10.87
2019-01-12T21:48:02.657Z,12.10
2019-01-12T21:50:29.190Z,12.23
2019-01-12T21:52:56.032Z,11.73
2019-01-12T21:55:22.566Z,12.37
2019-01-12T21:57:49.100Z,10.20
2019-01-12T22:00:15.636Z,10.87
2019-01-12T22:02:42.479Z,11.50
2019-01-12T22:05:09.013Z,10.13
2019-01-12T22:07:35.548Z,9.70
2019-01-12T22:10:02.390Z,11.90
2019-01-12T22:12:28.934Z,10.30
2019-01-12T22:14:55.762Z,9.97
2019-01-12T22:17:22.298Z,11.63
2019-01-12T22:19:48.841Z,10.27
2019-01-12T22:22:15.675Z,11.30
2019-01-12T22:24:42.516Z,9.93
2019-01-12T22:27:09.052Z,9.77
2019-01-12T22:29:35.584Z,10.53
2019-01-12T22:32:02.120Z,9.70
2019-01-12T22:34:28.663Z,10.87
2019-01-12T22:36:55.187Z,10.37
2019-01-12T22:39:22.029Z,9.70
2019-01-12T22:41:48.563Z,8.80
2019-01-12T22:44:15.406Z,9.40
2019-01-12T22:46:41.943Z,9.60
2019-01-12T22:49:08.475Z,9.80
2019-01-12T22:51:35.316Z,9.53
2019-01-12T22:54:01.855Z,10.00
2019-01-12T22:56:28.708Z,9.97
2019-01-12T22:58:55.535Z,10.07
2019-01-12T23:01:22.071Z,9.33
2019-01-12T23:03:48.915Z,7.67
2019-01-12T23:06:15.445Z,8.50
2019-01-12T23:08:41.982Z,10.00
2019-01-12T23:11:08.821Z,8.93
2019-01-12T23:13:35.355Z,8.77
2019-01-12T23:16:01.892Z,8.87
2019-01-12T23:18:28.424Z,8.37
2019-01-12T23:20:55.050Z,7.00
2019-01-12T23:23:21.800Z,8.07
2019-01-12T23:25:48.334Z,7.17
2019-01-12T23:28:14.871Z,7.43
2019-01-12T23:30:41.410Z,8.20
2019-01-12T23:33:08.250Z,6.43
2019-01-12T23:35:34.780Z,6.70
2019-01-12T23:38:01.316Z,7.33
2019-01-12T23:40:27.851Z,7.83
2019-01-12T23:42:54.384Z,6.03
2019-01-12T23:45:20.919Z,7.53
2019-01-12T23:47:47.760Z,7.57
2019-01-12T23:50:14.297Z,6.70
2019-01-12T23:52:40.835Z,7.33
2019-01-12T23:55:07.368Z,7.03
2019-01-12T23:57:33.898Z,7.60
